North Amherst, Massachusetts
Current Conditions -  °F | °C
As of 7:02 PM on Thursday 27 Nov 2014 (Local Time) from KCEF Reporting Station
Light Snow Light Snow  
Wind Chill: 32°   Ceiling: 2100
Heat Index: 32°   Visibility: 6mi
Dew Point: 28°   Wind: 2mph
Humidity: 87%   Direction: 350°N
Pressure: 30"   Gusts: NA
Location:  42.41°N, 72.53°W
Report Text: KCEF 280002Z AUTO 35002KT 6SM -SN BR OVC021 00/M02 A3000 RMK AO2
Loading
Personal Weather Stations






























Interactive Weather Map New forecast layout! Learn more

10-Day Weather Forecast

Advertisements
Track Severe Weather on mobile